Terminal Aerodrome Forecast
Issued by NWS

Home | Current Version | Previous Version | Text Only | Print | Product List | Glossary On
Versions: 1 2 3 4 5 6 7 8 9 10 11 12 13 14 15 16 17 18 19 20 21 22 23 24 25 26 27 28 29 30 31 32 33
000
FTUS45 KGGW 011100
TAFOLF
TAF
KOLF 011123Z 0112/0212 29015G25KT P6SM OVC020
     FM011800 28016G27KT P6SM BKN040
     FM020000 29010KT P6SM SCT060
     FM020500 25006KT P6SM SCT080=

USA.gov is the U.S. government's official web portal to all federal, state and local government web resources and services.